KTRL/TRL METAR and TAF weather

Enter ICAO airport designator
Station Type Date Time Source
KTRL METAR 2020/01/24 08:53 UTC NOAA

KTRL 240853Z AUTO 27006KT 10SM CLR 03/01 A3008 RMK AO2 SLP184 T00330006 53002


Station Type Date Time Source
KTRL Decoded METAR 2020/01/24 08:53 UTC NOAA

TERRELL MUNICIPAL AIRPORT, TX, United States (KTRL) 32-43N 96-16W 144M
Jan 24, 2020 - 03:53 AM EST / 2020.01.24 0853 UTC
Wind: from the W (270 degrees) at 7 MPH (6 KT):0
Visibility: 10 mile(s):0
Sky conditions: clear
Temperature: 37.9 F (3.3 C)
Dew Point: 33.1 F (0.6 C)
Relative Humidity: 82%
Pressure (altimeter): 30.08 in. Hg (1018 hPa)
Pressure tendency: 0.01 inches (0.2 hPa) higher than three hours ago
ob: KTRL 240853Z AUTO 27006KT 10SM CLR 03/01 A3008 RMK AO2 SLP184 T00330006 53002
cycle: 9

Station Type Date Time Source
KTRL TAF UTC NOAA

Error!

Example: see airport list